createdAt,value
2017-08-25T00:00:12.021Z,0
2017-08-25T00:01:14.826Z,0
2017-08-25T00:02:17.613Z,0
2017-08-25T00:03:20.114Z,0
2017-08-25T00:04:22.562Z,0
2017-08-25T00:05:25.389Z,0
2017-08-25T00:06:27.849Z,0
2017-08-25T00:07:30.982Z,0
2017-08-25T00:08:33.444Z,0
2017-08-25T00:09:35.910Z,0
2017-08-25T00:10:38.361Z,0
2017-08-25T00:11:40.824Z,0
2017-08-25T00:12:43.285Z,0
2017-08-25T00:13:45.733Z,0
2017-08-25T00:14:48.536Z,0
2017-08-25T00:15:50.993Z,0
2017-08-25T00:16:53.555Z,0
2017-08-25T00:17:56.008Z,0
2017-08-25T00:18:58.467Z,0
2017-08-25T00:20:00.920Z,0
2017-08-25T00:21:03.749Z,0
2017-08-25T00:22:06.217Z,0
2017-08-25T00:23:08.697Z,0
2017-08-25T00:24:11.148Z,0
2017-08-25T00:25:13.609Z,0
2017-08-25T00:26:16.063Z,0
2017-08-25T00:27:18.524Z,0
2017-08-25T00:28:20.984Z,0
2017-08-25T00:29:23.457Z,0
2017-08-25T00:30:25.907Z,0
2017-08-25T00:31:28.362Z,0
2017-08-25T00:32:31.165Z,0
2017-08-25T00:33:33.635Z,0
2017-08-25T00:34:36.771Z,0
2017-08-25T00:35:39.228Z,0
2017-08-25T00:36:41.673Z,0
2017-08-25T00:37:44.140Z,0
2017-08-25T00:38:46.595Z,0
2017-08-25T00:39:49.042Z,0
2017-08-25T00:40:51.519Z,0
2017-08-25T00:41:53.975Z,0
2017-08-25T00:42:56.773Z,0
2017-08-25T00:43:59.231Z,0
2017-08-25T00:45:01.673Z,0
2017-08-25T00:46:04.126Z,0
2017-08-25T00:47:06.595Z,0
2017-08-25T00:48:09.039Z,0
2017-08-25T00:49:11.502Z,0
2017-08-25T00:50:13.960Z,0
2017-08-25T00:51:16.428Z,0
2017-08-25T00:52:18.898Z,0
2017-08-25T00:53:21.359Z,0
2017-08-25T00:54:23.803Z,0
2017-08-25T00:55:26.293Z,0
2017-08-25T00:56:28.743Z,0
2017-08-25T00:57:31.536Z,0
2017-08-25T00:58:33.985Z,0
2017-08-25T00:59:36.448Z,0
2017-08-25T01:00:39.241Z,0
2017-08-25T01:01:42.371Z,0
2017-08-25T01:02:45.184Z,0
2017-08-25T01:03:47.638Z,0
2017-08-25T01:04:50.090Z,0
2017-08-25T01:05:52.552Z,0
2017-08-25T01:06:55.007Z,0
2017-08-25T01:07:57.831Z,0
2017-08-25T01:09:00.289Z,0
2017-08-25T01:10:02.736Z,0
2017-08-25T01:11:05.528Z,0
2017-08-25T01:12:07.985Z,0
2017-08-25T01:13:10.428Z,0
2017-08-25T01:14:12.886Z,0
2017-08-25T01:15:15.343Z,0
2017-08-25T01:16:17.795Z,0
2017-08-25T01:17:20.928Z,0
2017-08-25T01:18:23.383Z,0
2017-08-25T01:19:25.835Z,0
2017-08-25T01:20:28.301Z,0
2017-08-25T01:21:30.753Z,0
2017-08-25T01:22:33.206Z,0
2017-08-25T01:23:35.651Z,0
2017-08-25T01:24:38.461Z,0
2017-08-25T01:25:40.910Z,0
2017-08-25T01:26:43.363Z,0
2017-08-25T01:27:45.827Z,0
2017-08-25T01:28:48.282Z,0
2017-08-25T01:29:50.725Z,0
2017-08-25T01:30:53.187Z,0
2017-08-25T01:31:55.635Z,0
2017-08-25T01:32:58.095Z,0
2017-08-25T01:34:00.543Z,0
2017-08-25T01:35:02.984Z,0
2017-08-25T01:36:05.448Z,0
2017-08-25T01:37:07.909Z,0
2017-08-25T01:38:10.360Z,0
2017-08-25T01:39:12.814Z,0
2017-08-25T01:40:15.272Z,0
2017-08-25T01:41:17.719Z,0
2017-08-25T01:42:20.175Z,0
2017-08-25T01:43:22.633Z,0
2017-08-25T01:44:25.073Z,0
2017-08-25T01:45:27.527Z,0
2017-08-25T01:46:30.348Z,0
2017-08-25T01:47:33.141Z,0
2017-08-25T01:48:35.596Z,0
2017-08-25T01:49:38.048Z,0
2017-08-25T01:50:40.500Z,0
2017-08-25T01:51:43.307Z,0
2017-08-25T01:52:45.758Z,0
2017-08-25T01:53:48.213Z,0
2017-08-25T01:54:50.660Z,0
2017-08-25T01:55:53.116Z,0
2017-08-25T01:56:55.569Z,0
2017-08-25T01:57:58.030Z,0
2017-08-25T01:59:00.480Z,0
2017-08-25T02:00:02.945Z,0
2017-08-25T02:01:05.393Z,0
2017-08-25T02:02:07.847Z,0
2017-08-25T02:03:10.304Z,0
2017-08-25T02:04:12.754Z,0
2017-08-25T02:05:15.208Z,0
2017-08-25T02:06:17.657Z,0
2017-08-25T02:07:20.108Z,0
2017-08-25T02:08:22.913Z,0
2017-08-25T02:09:25.350Z,0
2017-08-25T02:10:27.816Z,0
2017-08-25T02:11:30.268Z,0
2017-08-25T02:12:33.088Z,0
2017-08-25T02:13:35.880Z,0
2017-08-25T02:14:38.329Z,0
2017-08-25T02:15:40.793Z,0
2017-08-25T02:16:43.595Z,0
2017-08-25T02:17:46.048Z,0
2017-08-25T02:18:48.501Z,0
2017-08-25T02:19:50.963Z,0
2017-08-25T02:20:53.417Z,0
2017-08-25T02:21:55.871Z,0
2017-08-25T02:22:58.326Z,0
2017-08-25T02:24:00.782Z,0
2017-08-25T02:25:03.226Z,0
2017-08-25T02:26:05.691Z,0
2017-08-25T02:27:08.147Z,0
2017-08-25T02:28:10.600Z,0
2017-08-25T02:29:13.048Z,0
2017-08-25T02:30:15.504Z,0
2017-08-25T02:31:17.947Z,0
2017-08-25T02:32:20.420Z,0
2017-08-25T02:33:22.863Z,0
2017-08-25T02:34:25.670Z,0
2017-08-25T02:35:28.668Z,0
2017-08-25T02:36:31.128Z,0
2017-08-25T02:37:33.930Z,0
2017-08-25T02:38:36.381Z,0
2017-08-25T02:39:38.831Z,0
2017-08-25T02:40:41.647Z,0
2017-08-25T02:41:44.089Z,0
2017-08-25T02:42:46.543Z,0
2017-08-25T02:43:48.980Z,0
2017-08-25T02:44:51.442Z,0
2017-08-25T02:45:54.610Z,0
2017-08-25T02:46:57.076Z,0
2017-08-25T02:47:59.533Z,0
2017-08-25T02:49:01.983Z,0
2017-08-25T02:50:04.785Z,0
2017-08-25T02:51:07.249Z,0
2017-08-25T02:52:10.045Z,0
2017-08-25T02:53:12.846Z,0
2017-08-25T02:54:15.301Z,0
2017-08-25T02:55:17.757Z,0
2017-08-25T02:56:20.549Z,0
2017-08-25T02:57:23.004Z,0
2017-08-25T02:58:25.465Z,0
2017-08-25T02:59:28.257Z,0
2017-08-25T03:00:30.712Z,0
2017-08-25T03:01:33.163Z,0
2017-08-25T03:02:35.664Z,0
2017-08-25T03:03:38.112Z,0
2017-08-25T03:04:40.591Z,0
2017-08-25T03:05:43.032Z,0
2017-08-25T03:06:45.489Z,0
2017-08-25T03:07:47.952Z,0
2017-08-25T03:08:50.404Z,0
2017-08-25T03:09:53.208Z,0
2017-08-25T03:10:55.659Z,0
2017-08-25T03:11:58.481Z,0
2017-08-25T03:13:00.931Z,0
2017-08-25T03:14:03.388Z,0
2017-08-25T03:15:05.834Z,0
2017-08-25T03:16:08.631Z,0
2017-08-25T03:17:11.124Z,0
2017-08-25T03:18:13.575Z,0
2017-08-25T03:19:16.032Z,0
2017-08-25T03:20:18.529Z,0
2017-08-25T03:21:20.983Z,0
2017-08-25T03:22:23.490Z,0
2017-08-25T03:23:25.933Z,0
2017-08-25T03:24:28.407Z,0
2017-08-25T03:25:31.220Z,0
2017-08-25T03:26:33.678Z,0
2017-08-25T03:27:36.122Z,0
2017-08-25T03:28:38.916Z,0
2017-08-25T03:29:41.392Z,0
2017-08-25T03:30:43.855Z,0
2017-08-25T03:31:46.299Z,0
2017-08-25T03:32:48.805Z,0
2017-08-25T03:33:51.257Z,0
2017-08-25T03:34:53.754Z,0
2017-08-25T03:35:56.212Z,0
2017-08-25T03:36:58.713Z,0
2017-08-25T03:38:01.168Z,0
2017-08-25T03:39:03.623Z,0
2017-08-25T03:40:06.764Z,0
2017-08-25T03:41:09.556Z,0
2017-08-25T03:42:12.012Z,0
2017-08-25T03:43:14.460Z,0
2017-08-25T03:44:16.935Z,0
2017-08-25T03:45:19.734Z,0
2017-08-25T03:46:22.196Z,0
2017-08-25T03:47:24.688Z,0
2017-08-25T03:48:27.143Z,0
2017-08-25T03:49:29.630Z,0
2017-08-25T03:50:32.078Z,0
2017-08-25T03:51:34.526Z,0
2017-08-25T03:52:37.030Z,0
2017-08-25T03:53:39.481Z,0
2017-08-25T03:54:41.978Z,0
2017-08-25T03:55:44.446Z,0
2017-08-25T03:56:46.936Z,0
2017-08-25T03:57:49.381Z,0
2017-08-25T03:58:51.843Z,0
2017-08-25T03:59:54.295Z,0
2017-08-25T04:00:56.745Z,0
2017-08-25T04:01:59.562Z,0
2017-08-25T04:03:02.009Z,1
2017-08-25T04:04:04.466Z,1
2017-08-25T04:05:06.976Z,1
2017-08-25T04:06:09.425Z,1
2017-08-25T04:07:11.933Z,1
2017-08-25T04:08:14.393Z,1
2017-08-25T04:09:17.184Z,1
2017-08-25T04:10:19.642Z,2
2017-08-25T04:11:22.095Z,2
2017-08-25T04:12:24.540Z,2
2017-08-25T04:13:26.995Z,2
2017-08-25T04:14:29.474Z,2
2017-08-25T04:15:31.925Z,2
2017-08-25T04:16:34.390Z,3
2017-08-25T04:17:37.183Z,3
2017-08-25T04:18:39.638Z,3
2017-08-25T04:19:42.131Z,4
2017-08-25T04:20:44.585Z,4
2017-08-25T04:21:47.076Z,4
2017-08-25T04:22:49.529Z,5
2017-08-25T04:23:51.989Z,5
2017-08-25T04:24:54.772Z,5
2017-08-25T04:25:57.228Z,6
2017-08-25T04:26:59.700Z,6
2017-08-25T04:28:02.526Z,6
2017-08-25T04:29:05.015Z,7
2017-08-25T04:30:07.814Z,7
2017-08-25T04:31:10.261Z,7
2017-08-25T04:32:13.120Z,8
2017-08-25T04:33:15.580Z,8
2017-08-25T04:34:18.075Z,9
2017-08-25T04:35:20.524Z,9
2017-08-25T04:36:23.035Z,10
2017-08-25T04:37:25.823Z,10
2017-08-25T04:38:28.277Z,10
2017-08-25T04:39:30.733Z,11
2017-08-25T04:40:33.182Z,11
2017-08-25T04:41:35.986Z,11
2017-08-25T04:42:38.438Z,12
2017-08-25T04:43:41.269Z,12
2017-08-25T04:44:43.719Z,12
2017-08-25T04:45:46.174Z,13
2017-08-25T04:46:48.619Z,14
2017-08-25T04:47:51.421Z,14
2017-08-25T04:48:53.873Z,15
2017-08-25T04:49:56.318Z,15
2017-08-25T04:50:58.780Z,16
2017-08-25T04:52:01.279Z,16
2017-08-25T04:53:03.738Z,17
2017-08-25T04:54:06.240Z,16
2017-08-25T04:55:09.065Z,17
2017-08-25T04:56:11.547Z,18
2017-08-25T04:57:13.992Z,18
2017-08-25T04:58:16.446Z,18
2017-08-25T04:59:18.900Z,18
2017-08-25T05:00:21.351Z,18
2017-08-25T05:01:23.861Z,18
2017-08-25T05:02:26.314Z,18
2017-08-25T05:03:28.799Z,17
2017-08-25T05:04:31.256Z,17
2017-08-25T05:05:33.712Z,17
2017-08-25T05:06:36.163Z,18
2017-08-25T05:07:38.617Z,18
2017-08-25T05:08:41.153Z,19
2017-08-25T05:09:44.337Z,20
2017-08-25T05:10:46.825Z,20
2017-08-25T05:11:49.616Z,21
2017-08-25T05:12:52.068Z,21
2017-08-25T05:13:54.532Z,22
2017-08-25T05:14:57.016Z,23
2017-08-25T05:15:59.467Z,24
2017-08-25T05:17:01.925Z,25
2017-08-25T05:18:04.378Z,25
2017-08-25T05:19:06.830Z,26
2017-08-25T05:20:09.353Z,26
2017-08-25T05:21:11.788Z,26
2017-08-25T05:22:14.251Z,26
2017-08-25T05:23:16.704Z,26
2017-08-25T05:24:19.153Z,26
2017-08-25T05:25:21.653Z,26
2017-08-25T05:26:24.098Z,27
2017-08-25T05:27:26.559Z,28
2017-08-25T05:28:29.009Z,28
2017-08-25T05:29:31.472Z,28
2017-08-25T05:30:33.945Z,29
2017-08-25T05:31:36.394Z,30
2017-08-25T05:32:38.905Z,32
2017-08-25T05:33:41.359Z,33
2017-08-25T05:34:43.810Z,34
2017-08-25T05:35:46.279Z,34
2017-08-25T05:36:48.768Z,34
2017-08-25T05:37:51.225Z,33
2017-08-25T05:38:53.676Z,34
2017-08-25T05:39:56.118Z,34
2017-08-25T05:40:58.573Z,35
2017-08-25T05:42:01.138Z,36
2017-08-25T05:43:03.583Z,38
2017-08-25T05:44:06.045Z,42
2017-08-25T05:45:08.496Z,42
2017-08-25T05:46:10.948Z,41
2017-08-25T05:47:13.462Z,40
2017-08-25T05:48:15.920Z,41
2017-08-25T05:49:18.722Z,44
2017-08-25T05:50:21.174Z,47
2017-08-25T05:51:23.636Z,48
2017-08-25T05:52:26.095Z,48
2017-08-25T05:53:28.584Z,47
2017-08-25T05:54:31.044Z,49
2017-08-25T05:55:33.498Z,48
2017-08-25T05:56:36.287Z,47
2017-08-25T05:57:38.753Z,47
2017-08-25T05:58:41.576Z,48
2017-08-25T05:59:44.029Z,51
2017-08-25T06:00:46.494Z,54
2017-08-25T06:01:48.945Z,58
2017-08-25T06:02:51.398Z,62
2017-08-25T06:03:54.300Z,64
2017-08-25T06:04:56.795Z,65
2017-08-25T06:05:59.245Z,63
2017-08-25T06:07:01.706Z,63
2017-08-25T06:08:04.165Z,64
2017-08-25T06:09:07.306Z,65
2017-08-25T06:10:09.810Z,67
2017-08-25T06:11:12.260Z,69
2017-08-25T06:12:14.797Z,70
2017-08-25T06:13:17.258Z,70
2017-08-25T06:14:19.706Z,68
2017-08-25T06:15:22.166Z,65
2017-08-25T06:16:24.637Z,63
2017-08-25T06:17:27.087Z,67
2017-08-25T06:18:29.557Z,69
2017-08-25T06:19:32.006Z,71
2017-08-25T06:20:34.458Z,73
2017-08-25T06:21:37.341Z,72
2017-08-25T06:22:39.796Z,70
2017-08-25T06:23:42.256Z,69
2017-08-25T06:24:44.705Z,70
2017-08-25T06:25:47.501Z,70
2017-08-25T06:26:50.316Z,71
2017-08-25T06:27:53.181Z,72
2017-08-25T06:28:55.653Z,74
2017-08-25T06:29:58.102Z,76
2017-08-25T06:31:00.557Z,76
2017-08-25T06:32:03.015Z,75
2017-08-25T06:33:05.557Z,74
2017-08-25T06:34:08.013Z,71
2017-08-25T06:35:10.478Z,68
2017-08-25T06:36:12.933Z,67
2017-08-25T06:37:15.740Z,66
2017-08-25T06:38:18.185Z,66
2017-08-25T06:39:20.736Z,67
2017-08-25T06:40:23.187Z,68
2017-08-25T06:41:25.643Z,68
2017-08-25T06:42:28.097Z,69
2017-08-25T06:43:30.562Z,72
2017-08-25T06:44:33.071Z,73
2017-08-25T06:45:35.880Z,74
2017-08-25T06:46:38.334Z,76
2017-08-25T06:47:40.791Z,77
2017-08-25T06:48:43.251Z,78
2017-08-25T06:49:45.761Z,80
2017-08-25T06:50:48.216Z,80
2017-08-25T06:51:51.027Z,81
2017-08-25T06:52:53.481Z,81
2017-08-25T06:53:55.950Z,81
2017-08-25T06:54:58.748Z,80
2017-08-25T06:56:01.246Z,79
2017-08-25T06:57:03.698Z,78
2017-08-25T06:58:06.154Z,76
2017-08-25T06:59:08.608Z,74
2017-08-25T07:00:11.062Z,70
2017-08-25T07:01:13.564Z,65
2017-08-25T07:02:16.013Z,62
2017-08-25T07:03:18.482Z,59
2017-08-25T07:04:20.930Z,58
2017-08-25T07:05:23.392Z,58
2017-08-25T07:06:26.527Z,57
2017-08-25T07:07:29.024Z,56
2017-08-25T07:08:31.490Z,61
2017-08-25T07:09:33.947Z,68
2017-08-25T07:10:36.517Z,71
2017-08-25T07:11:38.979Z,72
2017-08-25T07:12:41.434Z,73
2017-08-25T07:13:43.889Z,77
2017-08-25T07:14:46.856Z,77
2017-08-25T07:15:49.381Z,79
2017-08-25T07:16:51.987Z,90
2017-08-25T07:17:54.517Z,93
2017-08-25T07:18:57.151Z,100
2017-08-25T07:19:59.613Z,102
2017-08-25T07:21:02.072Z,104
2017-08-25T07:22:04.533Z,103
2017-08-25T07:23:06.990Z,90
2017-08-25T07:24:09.447Z,97
2017-08-25T07:25:11.898Z,101
2017-08-25T07:26:14.709Z,102
2017-08-25T07:27:17.170Z,97
2017-08-25T07:28:19.622Z,97
2017-08-25T07:29:22.043Z,99
2017-08-25T07:30:24.455Z,104
2017-08-25T07:31:26.887Z,107
2017-08-25T07:32:29.334Z,105
2017-08-25T07:33:31.753Z,108
2017-08-25T07:34:34.195Z,101
2017-08-25T07:35:36.742Z,100
2017-08-25T07:36:39.973Z,106
2017-08-25T07:37:42.481Z,93
2017-08-25T07:38:44.953Z,107
2017-08-25T07:39:47.387Z,93
2017-08-25T07:40:49.867Z,104
2017-08-25T07:41:52.333Z,115
2017-08-25T07:42:54.803Z,114
2017-08-25T07:43:57.255Z,95
2017-08-25T07:44:59.688Z,114
2017-08-25T07:46:02.173Z,104
2017-08-25T07:47:04.655Z,105
2017-08-25T07:48:07.109Z,110
2017-08-25T07:49:09.550Z,107
2017-08-25T07:50:11.994Z,102
2017-08-25T07:51:14.441Z,104
2017-08-25T07:52:16.888Z,101
2017-08-25T07:53:19.362Z,98
2017-08-25T07:54:21.790Z,100
2017-08-25T07:55:24.205Z,99
2017-08-25T07:56:26.650Z,99
2017-08-25T07:57:29.439Z,100
2017-08-25T07:58:31.897Z,102
2017-08-25T07:59:34.679Z,105
2017-08-25T08:00:37.105Z,125
2017-08-25T08:01:39.932Z,240
2017-08-25T08:02:42.716Z,333
2017-08-25T08:03:45.179Z,126
2017-08-25T08:04:47.637Z,359
2017-08-25T08:05:50.065Z,402
2017-08-25T08:06:52.497Z,386
2017-08-25T08:07:54.909Z,418
2017-08-25T08:08:57.342Z,354
2017-08-25T08:09:59.767Z,452
2017-08-25T08:11:02.184Z,217
2017-08-25T08:12:04.671Z,311
2017-08-25T08:13:07.093Z,322
2017-08-25T08:14:09.566Z,209
2017-08-25T08:15:12.006Z,205
2017-08-25T08:16:14.428Z,169
2017-08-25T08:17:16.861Z,155
2017-08-25T08:18:19.671Z,263
2017-08-25T08:19:22.142Z,243
2017-08-25T08:20:24.577Z,257
2017-08-25T08:21:27.392Z,177
2017-08-25T08:22:29.872Z,222
2017-08-25T08:23:32.315Z,406
2017-08-25T08:24:34.731Z,465
2017-08-25T08:25:37.193Z,446
2017-08-25T08:26:39.661Z,426
2017-08-25T08:27:42.118Z,238
2017-08-25T08:28:44.899Z,409
2017-08-25T08:29:47.342Z,300
2017-08-25T08:30:49.752Z,468
2017-08-25T08:31:52.196Z,448
2017-08-25T08:32:54.605Z,447
2017-08-25T08:33:57.049Z,394
2017-08-25T08:34:59.477Z,386
2017-08-25T08:36:01.911Z,356
2017-08-25T08:37:04.319Z,329
2017-08-25T08:38:06.745Z,316
2017-08-25T08:39:09.143Z,277
2017-08-25T08:40:11.583Z,183
2017-08-25T08:41:14.078Z,204
2017-08-25T08:42:16.490Z,160
2017-08-25T08:43:18.907Z,387
2017-08-25T08:44:21.315Z,419
2017-08-25T08:45:23.744Z,485
2017-08-25T08:46:26.204Z,505
2017-08-25T08:47:28.614Z,542
2017-08-25T08:48:31.067Z,169
2017-08-25T08:49:33.471Z,289
2017-08-25T08:50:35.891Z,441
2017-08-25T08:51:38.339Z,572
2017-08-25T08:52:41.090Z,583
2017-08-25T08:53:43.497Z,493
2017-08-25T08:54:45.956Z,501
2017-08-25T08:55:48.370Z,533
2017-08-25T08:56:50.819Z,501
2017-08-25T08:57:53.296Z,521
2017-08-25T08:58:55.712Z,452
2017-08-25T08:59:58.142Z,453
2017-08-25T09:01:00.558Z,506
2017-08-25T09:02:03.035Z,135
2017-08-25T09:03:05.522Z,140
2017-08-25T09:04:07.954Z,209
2017-08-25T09:05:11.073Z,118
2017-08-25T09:06:13.692Z,139
2017-08-25T09:07:16.158Z,145
2017-08-25T09:08:18.569Z,166
2017-08-25T09:09:20.992Z,107
2017-08-25T09:10:23.558Z,99
2017-08-25T09:11:25.986Z,109
2017-08-25T09:12:28.483Z,147
2017-08-25T09:13:31.383Z,262
2017-08-25T09:14:33.786Z,157
2017-08-25T09:15:36.343Z,240
2017-08-25T09:16:38.754Z,199
2017-08-25T09:17:41.170Z,462
2017-08-25T09:18:43.637Z,473
2017-08-25T09:19:46.058Z,507
2017-08-25T09:20:48.602Z,584
2017-08-25T09:21:51.006Z,238
2017-08-25T09:22:53.487Z,588
2017-08-25T09:23:56.099Z,564
2017-08-25T09:24:58.509Z,541
2017-08-25T09:26:00.990Z,457
2017-08-25T09:27:03.791Z,435
2017-08-25T09:28:06.582Z,263
2017-08-25T09:29:09.024Z,515
2017-08-25T09:30:11.428Z,541
2017-08-25T09:31:13.846Z,341
2017-08-25T09:32:16.608Z,628
2017-08-25T09:33:19.012Z,544
2017-08-25T09:34:21.427Z,544
2017-08-25T09:35:23.842Z,556
2017-08-25T09:36:26.257Z,200
2017-08-25T09:37:28.672Z,243
2017-08-25T09:38:31.085Z,219
2017-08-25T09:39:33.499Z,645
2017-08-25T09:40:36.236Z,574
2017-08-25T09:41:38.655Z,217
2017-08-25T09:42:41.063Z,533
2017-08-25T09:43:43.557Z,471
2017-08-25T09:44:46.030Z,675
2017-08-25T09:45:48.464Z,189
2017-08-25T09:46:50.912Z,538
2017-08-25T09:47:53.338Z,155
2017-08-25T09:48:55.748Z,643
2017-08-25T09:49:58.159Z,464
2017-08-25T09:51:00.572Z,196
2017-08-25T09:52:02.992Z,554
2017-08-25T09:53:05.407Z,581
2017-08-25T09:54:07.828Z,601
2017-08-25T09:55:10.235Z,617
2017-08-25T09:56:12.644Z,565
2017-08-25T09:57:15.063Z,653
2017-08-25T09:58:17.489Z,651
2017-08-25T09:59:20.328Z,203
2017-08-25T10:00:22.809Z,700
2017-08-25T10:01:25.301Z,725
2017-08-25T10:02:27.708Z,266
2017-08-25T10:03:30.147Z,159
2017-08-25T10:04:32.549Z,180
2017-08-25T10:05:34.970Z,647
2017-08-25T10:06:37.397Z,593
2017-08-25T10:07:39.896Z,527
2017-08-25T10:08:42.323Z,148
2017-08-25T10:09:44.742Z,143
2017-08-25T10:10:47.161Z,137
2017-08-25T10:11:49.587Z,632
2017-08-25T10:12:52.004Z,641
2017-08-25T10:13:54.412Z,620
2017-08-25T10:14:56.834Z,631
2017-08-25T10:15:59.249Z,137
2017-08-25T10:17:01.665Z,144
2017-08-25T10:18:04.082Z,348
2017-08-25T10:19:06.495Z,237
2017-08-25T10:20:09.339Z,234
2017-08-25T10:21:11.748Z,541
2017-08-25T10:22:14.166Z,514
2017-08-25T10:23:16.582Z,515
2017-08-25T10:24:19.075Z,469
2017-08-25T10:25:21.492Z,514
2017-08-25T10:26:23.912Z,498
2017-08-25T10:27:26.322Z,508
2017-08-25T10:28:28.840Z,197
2017-08-25T10:29:31.262Z,134
2017-08-25T10:30:33.677Z,133
2017-08-25T10:31:36.092Z,151
2017-08-25T10:32:38.594Z,171
2017-08-25T10:33:41.009Z,207
2017-08-25T10:34:43.421Z,250
2017-08-25T10:35:45.844Z,233
2017-08-25T10:36:48.256Z,282
2017-08-25T10:37:50.686Z,292
2017-08-25T10:38:53.100Z,333
2017-08-25T10:39:55.631Z,197
2017-08-25T10:40:58.050Z,153
2017-08-25T10:42:00.550Z,132
2017-08-25T10:43:02.976Z,122
2017-08-25T10:44:05.401Z,131
2017-08-25T10:45:07.929Z,157
2017-08-25T10:46:10.347Z,201
2017-08-25T10:47:13.446Z,309
2017-08-25T10:48:15.861Z,196
2017-08-25T10:49:18.281Z,169
2017-08-25T10:50:21.144Z,155
2017-08-25T10:51:23.566Z,154
2017-08-25T10:52:25.975Z,159
2017-08-25T10:53:28.398Z,161
2017-08-25T10:54:30.822Z,184
2017-08-25T10:55:34.098Z,118
2017-08-25T10:56:36.506Z,75
2017-08-25T10:57:39.265Z,45
2017-08-25T10:58:41.681Z,35
2017-08-25T10:59:44.101Z,34
2017-08-25T11:00:46.739Z,35
2017-08-25T11:01:49.139Z,37
2017-08-25T11:02:51.923Z,44
2017-08-25T11:03:54.327Z,55
2017-08-25T11:04:56.943Z,59
2017-08-25T11:05:59.356Z,63
2017-08-25T11:07:01.951Z,70
2017-08-25T11:08:04.694Z,87
2017-08-25T11:09:07.106Z,107
2017-08-25T11:10:09.523Z,145
2017-08-25T11:11:11.935Z,132
2017-08-25T11:12:14.346Z,115
2017-08-25T11:13:16.766Z,107
2017-08-25T11:14:19.175Z,98
2017-08-25T11:15:21.589Z,92
2017-08-25T11:16:24.002Z,91
2017-08-25T11:17:26.418Z,95
2017-08-25T11:18:29.038Z,116
2017-08-25T11:19:31.456Z,142
2017-08-25T11:20:34.050Z,168
2017-08-25T11:21:36.448Z,202
2017-08-25T11:22:38.863Z,209
2017-08-25T11:23:41.619Z,229
2017-08-25T11:24:44.026Z,247
2017-08-25T11:25:46.442Z,332
2017-08-25T11:26:48.859Z,372
2017-08-25T11:27:51.264Z,473
2017-08-25T11:28:53.679Z,666
2017-08-25T11:29:56.096Z,597
2017-08-25T11:30:58.507Z,576
2017-08-25T11:32:01.436Z,208
2017-08-25T11:33:11.065Z,254
2017-08-25T11:34:23.955Z,239
2017-08-25T11:35:38.342Z,238
2017-08-25T11:36:52.202Z,138
2017-08-25T11:38:08.974Z,104
2017-08-25T11:39:21.851Z,73
2017-08-25T11:40:36.038Z,56
2017-08-25T11:41:49.373Z,49
2017-08-25T11:42:59.662Z,54
2017-08-25T11:44:14.156Z,60
2017-08-25T11:45:25.872Z,68
2017-08-25T11:46:30.975Z,74
2017-08-25T11:47:33.423Z,73
2017-08-25T11:48:35.866Z,76
2017-08-25T11:49:38.291Z,81
2017-08-25T11:50:41.072Z,88
2017-08-25T11:51:43.492Z,108
2017-08-25T11:52:45.913Z,149
2017-08-25T11:53:48.336Z,195
2017-08-25T11:54:50.757Z,264
2017-08-25T11:55:53.503Z,467
2017-08-25T11:56:55.924Z,438
2017-08-25T11:57:58.336Z,760
2017-08-25T11:59:01.069Z,789
2017-08-25T12:00:03.689Z,585
2017-08-25T12:01:06.444Z,609
2017-08-25T12:02:08.873Z,699
2017-08-25T12:03:11.643Z,645
2017-08-25T12:04:14.451Z,689
2017-08-25T12:05:17.738Z,628
2017-08-25T12:06:20.158Z,684
2017-08-25T12:07:22.579Z,648
2017-08-25T12:08:24.995Z,506
2017-08-25T12:09:27.427Z,537
2017-08-25T12:10:30.377Z,528
2017-08-25T12:11:32.790Z,517
2017-08-25T12:12:35.426Z,540
2017-08-25T12:13:37.846Z,241
2017-08-25T12:14:40.272Z,205
2017-08-25T12:15:42.704Z,258
2017-08-25T12:16:45.279Z,133
2017-08-25T12:17:47.701Z,125
2017-08-25T12:18:50.129Z,120
2017-08-25T12:19:52.537Z,121
2017-08-25T12:20:54.958Z,120
2017-08-25T12:21:57.374Z,126
2017-08-25T12:23:00.076Z,155
2017-08-25T12:24:02.550Z,454
2017-08-25T12:25:04.966Z,410
2017-08-25T12:26:07.373Z,510
2017-08-25T12:27:09.787Z,420
2017-08-25T12:28:12.486Z,541
2017-08-25T12:29:15.668Z,605
2017-08-25T12:30:18.436Z,641
2017-08-25T12:31:20.854Z,538
2017-08-25T12:32:23.272Z,642
2017-08-25T12:33:25.691Z,635
2017-08-25T12:34:28.110Z,628
2017-08-25T12:35:30.649Z,579
2017-08-25T12:36:33.063Z,621
2017-08-25T12:37:35.485Z,240
2017-08-25T12:38:37.895Z,559
2017-08-25T12:39:40.315Z,295
2017-08-25T12:40:42.733Z,178
2017-08-25T12:41:45.280Z,181
2017-08-25T12:42:47.695Z,171
2017-08-25T12:43:50.115Z,252
2017-08-25T12:44:52.531Z,153
2017-08-25T12:45:54.957Z,399
2017-08-25T12:46:57.366Z,118
2017-08-25T12:47:59.839Z,107
2017-08-25T12:49:02.301Z,109
2017-08-25T12:50:04.723Z,119
2017-08-25T12:51:07.134Z,435
2017-08-25T12:52:09.553Z,164
2017-08-25T12:53:11.980Z,130
2017-08-25T12:54:14.389Z,116
2017-08-25T12:55:17.139Z,105
2017-08-25T12:56:19.557Z,97
2017-08-25T12:57:21.984Z,91
2017-08-25T12:58:24.407Z,83
2017-08-25T12:59:26.838Z,72
2017-08-25T13:00:29.248Z,63
2017-08-25T13:01:31.695Z,59
2017-08-25T13:02:34.113Z,56
2017-08-25T13:03:36.531Z,55
2017-08-25T13:04:38.945Z,59
2017-08-25T13:05:42.095Z,71
2017-08-25T13:06:45.173Z,87
2017-08-25T13:07:47.582Z,109
2017-08-25T13:08:50.001Z,124
2017-08-25T13:09:52.760Z,139
2017-08-25T13:10:55.186Z,176
2017-08-25T13:11:57.598Z,462
2017-08-25T13:13:00.224Z,445
2017-08-25T13:14:02.640Z,377
2017-08-25T13:15:05.062Z,424
2017-08-25T13:16:07.470Z,448
2017-08-25T13:17:09.895Z,523
2017-08-25T13:18:12.714Z,414
2017-08-25T13:19:15.938Z,400
2017-08-25T13:20:18.360Z,490
2017-08-25T13:21:20.788Z,462
2017-08-25T13:22:23.219Z,394
2017-08-25T13:23:25.873Z,389
2017-08-25T13:24:28.317Z,163
2017-08-25T13:25:30.732Z,157
2017-08-25T13:26:33.158Z,163
2017-08-25T13:27:35.573Z,165
2017-08-25T13:28:38.123Z,461
2017-08-25T13:29:40.540Z,481
2017-08-25T13:30:43.305Z,426
2017-08-25T13:31:45.726Z,388
2017-08-25T13:32:49.047Z,370
2017-08-25T13:33:52.858Z,399
2017-08-25T13:34:55.310Z,428
2017-08-25T13:35:57.727Z,451
2017-08-25T13:37:00.176Z,379
2017-08-25T13:38:02.588Z,377
2017-08-25T13:39:05.010Z,365
2017-08-25T13:40:07.441Z,421
2017-08-25T13:41:10.553Z,392
2017-08-25T13:42:12.998Z,375
2017-08-25T13:43:16.303Z,398
2017-08-25T13:44:18.721Z,458
2017-08-25T13:45:21.150Z,470
2017-08-25T13:46:24.315Z,361
2017-08-25T13:47:26.777Z,488
2017-08-25T13:48:29.207Z,490
2017-08-25T13:49:31.626Z,179
2017-08-25T13:50:34.052Z,157
2017-08-25T13:51:36.470Z,143
2017-08-25T13:52:38.901Z,137
2017-08-25T13:53:41.322Z,136
2017-08-25T13:54:43.840Z,139
2017-08-25T13:55:46.606Z,144
2017-08-25T13:56:49.023Z,162
2017-08-25T13:57:51.440Z,364
2017-08-25T13:58:53.860Z,187
2017-08-25T13:59:56.279Z,169
2017-08-25T14:00:58.700Z,163
2017-08-25T14:02:01.127Z,204
2017-08-25T14:03:03.547Z,372
2017-08-25T14:04:05.969Z,305
2017-08-25T14:05:08.382Z,277
2017-08-25T14:06:11.136Z,426
2017-08-25T14:07:13.564Z,416
2017-08-25T14:08:15.976Z,426
2017-08-25T14:09:18.396Z,407
2017-08-25T14:10:20.816Z,169
2017-08-25T14:11:23.238Z,131
2017-08-25T14:12:25.656Z,118
2017-08-25T14:13:28.192Z,111
2017-08-25T14:14:30.704Z,112
2017-08-25T14:15:33.125Z,115
2017-08-25T14:16:35.556Z,123
2017-08-25T14:17:37.968Z,128
2017-08-25T14:18:40.377Z,137
2017-08-25T14:19:42.802Z,204
2017-08-25T14:20:45.565Z,295
2017-08-25T14:21:47.991Z,322
2017-08-25T14:22:50.409Z,320
2017-08-25T14:23:52.823Z,202
2017-08-25T14:24:55.233Z,158
2017-08-25T14:25:57.657Z,139
2017-08-25T14:27:00.073Z,114
2017-08-25T14:28:02.760Z,102
2017-08-25T14:29:05.262Z,96
2017-08-25T14:30:07.685Z,96
2017-08-25T14:31:10.109Z,98
2017-08-25T14:32:12.532Z,100
2017-08-25T14:33:14.941Z,101
2017-08-25T14:34:17.355Z,108
2017-08-25T14:35:19.773Z,95
2017-08-25T14:36:22.191Z,91
2017-08-25T14:37:24.605Z,90
2017-08-25T14:38:27.022Z,90
2017-08-25T14:39:29.796Z,91
2017-08-25T14:40:32.224Z,95
2017-08-25T14:41:34.638Z,114
2017-08-25T14:42:37.051Z,229
2017-08-25T14:43:39.849Z,253
2017-08-25T14:44:42.278Z,111
2017-08-25T14:45:45.031Z,115
2017-08-25T14:46:47.443Z,106
2017-08-25T14:47:49.861Z,97
2017-08-25T14:48:52.280Z,88